Time;durP1;ratioP1;P1;durP2;ratioP2;P2;SDS_P1;SDS_P2;PMS_P1;PMS_P2;Temp;Humidity;BMP_temperature;BMP_pressure;BME280_temperature;BME280_humidity;BME280_pressure;Samples;Min_cycle;Max_cycle;Signal;HPM_P1;HPM_P2
2022/03/27 00:02:43;;;;;;;26.15;14.90;;;;;;;;;;5060734;28;20023;-70
2022/03/27 00:05:28;;;;;;;26.38;13.20;;;;;;;;;;5071619;28;20031;-65
2022/03/27 00:08:13;;;;;;;21.27;13.32;;;;;;;;;;5071047;28;20287;-66
2022/03/27 00:14:04;;;;;;;23.38;12.25;;;;;;;;;;5069797;28;20474;-67
2022/03/27 00:16:49;;;;;;;26.42;13.77;;;;;;;;;;5086858;28;20036;-66
2022/03/27 00:19:34;;;;;;;29.17;14.15;;;;;;;;;;5078104;28;20020;-64
2022/03/27 00:22:20;;;;;;;22.30;12.55;;;;;;;;;;5070860;28;20090;-67
2022/03/27 00:25:06;;;;;;;21.83;12.15;;;;;;;;;;5056377;28;20414;-68
2022/03/27 00:27:52;;;;;;;23.98;14.10;;;;;;;;;;5069802;28;20016;-68
2022/03/27 00:30:38;;;;;;;27.73;12.45;;;;;;;;;;5073959;28;20480;-67
2022/03/27 00:33:23;;;;;;;27.90;13.32;;;;;;;;;;5079818;28;20048;-67
2022/03/27 00:36:10;;;;;;;26.40;13.70;;;;;;;;;;5064736;28;20509;-71
2022/03/27 00:38:55;;;;;;;23.05;12.85;;;;;;;;;;5068915;28;20016;-63
2022/03/27 00:41:43;;;;;;;27.40;13.02;;;;;;;;;;5075914;28;20474;-64
2022/03/27 00:44:28;;;;;;;26.73;12.48;;;;;;;;;;5071963;28;20108;-66
2022/03/27 00:47:13;;;;;;;25.48;13.70;;;;;;;;;;5072483;28;20031;-63
2022/03/27 00:49:58;;;;;;;25.08;12.05;;;;;;;;;;5061710;28;20387;-66
2022/03/27 00:52:44;;;;;;;25.88;12.68;;;;;;;;;;5061110;28;20062;-64
2022/03/27 00:55:29;;;;;;;27.27;13.57;;;;;;;;;;5069067;28;20047;-64
2022/03/27 00:58:14;;;;;;;21.77;12.18;;;;;;;;;;5068986;28;20119;-64
2022/03/27 01:01:15;;;;;;;25.50;13.35;;;;;;;;;;5054811;28;20024;-69
2022/03/27 01:04:02;;;;;;;31.48;12.90;;;;;;;;;;5067979;28;20043;-71
2022/03/27 01:06:47;;;;;;;29.73;12.57;;;;;;;;;;5050594;28;20483;-69
2022/03/27 01:09:35;;;;;;;28.08;14.50;;;;;;;;;;5061652;28;20021;-69
2022/03/27 01:12:23;;;;;;;24.10;11.63;;;;;;;;;;5063615;28;20036;-69
2022/03/27 01:15:27;;;;;;;22.05;12.13;;;;;;;;;;5068129;28;20498;-64
2022/03/27 01:18:13;;;;;;;28.13;12.00;;;;;;;;;;5072543;28;20124;-65
2022/03/27 01:20:58;;;;;;;20.13;12.13;;;;;;;;;;5068724;28;20402;-64
2022/03/27 01:23:43;;;;;;;25.65;13.27;;;;;;;;;;5067645;28;20071;-65
2022/03/27 01:26:29;;;;;;;21.10;12.10;;;;;;;;;;5053373;28;20068;-64
2022/03/27 01:29:15;;;;;;;26.20;14.77;;;;;;;;;;5092894;28;20020;-67
2022/03/27 01:32:00;;;;;;;25.25;12.43;;;;;;;;;;5068368;28;20089;-65
2022/03/27 01:34:47;;;;;;;23.30;12.68;;;;;;;;;;5060634;28;20054;-66
2022/03/27 01:37:33;;;;;;;23.92;12.75;;;;;;;;;;5064802;28;20040;-66
2022/03/27 01:40:18;;;;;;;27.45;12.98;;;;;;;;;;5074109;28;20103;-64
2022/03/27 01:43:03;;;;;;;21.75;12.23;;;;;;;;;;5059487;28;20031;-65
2022/03/27 01:45:49;;;;;;;21.80;12.93;;;;;;;;;;5064610;28;20024;-65
2022/03/27 01:48:34;;;;;;;22.75;12.95;;;;;;;;;;5074503;28;20110;-65
2022/03/27 01:51:19;;;;;;;21.35;13.20;;;;;;;;;;5070486;28;20059;-66
2022/03/27 01:54:05;;;;;;;27.67;12.68;;;;;;;;;;5064405;28;20031;-68
2022/03/27 01:56:51;;;;;;;32.17;14.18;;;;;;;;;;5064463;28;20093;-68
2022/03/27 01:59:36;;;;;;;26.20;12.93;;;;;;;;;;5069088;28;20060;-69
2022/03/27 02:02:24;;;;;;;23.65;11.80;;;;;;;;;;5056232;28;20413;-69
2022/03/27 02:05:09;;;;;;;23.00;12.73;;;;;;;;;;5064638;28;20523;-68
2022/03/27 02:07:54;;;;;;;26.88;13.88;;;;;;;;;;5064399;28;20013;-69
2022/03/27 02:10:41;;;;;;;26.95;12.45;;;;;;;;;;5056973;28;20025;-63
2022/03/27 02:13:26;;;;;;;27.05;12.93;;;;;;;;;;5067925;28;20060;-64
2022/03/27 02:16:11;;;;;;;28.02;12.43;;;;;;;;;;5063886;28;20482;-63
2022/03/27 02:18:56;;;;;;;22.45;12.23;;;;;;;;;;5055976;28;20202;-65
2022/03/27 02:21:42;;;;;;;21.77;13.25;;;;;;;;;;5073000;28;20055;-62
2022/03/27 02:24:27;;;;;;;30.23;13.68;;;;;;;;;;5071298;28;20044;-64
2022/03/27 02:27:13;;;;;;;21.75;13.40;;;;;;;;;;5065479;28;20030;-66
2022/03/27 02:29:58;;;;;;;26.15;12.88;;;;;;;;;;5057793;28;20104;-65
2022/03/27 02:32:43;;;;;;;23.67;13.65;;;;;;;;;;5058689;28;20029;-68
2022/03/27 02:35:28;;;;;;;31.42;13.38;;;;;;;;;;5058138;28;20375;-66
2022/03/27 02:38:14;;;;;;;21.73;12.75;;;;;;;;;;5083176;28;20032;-68
2022/03/27 02:40:59;;;;;;;25.55;13.98;;;;;;;;;;5067856;28;20091;-71
2022/03/27 02:43:44;;;;;;;23.88;14.30;;;;;;;;;;5064978;28;20028;-67
2022/03/27 02:46:29;;;;;;;21.27;12.65;;;;;;;;;;5064896;28;20496;-70
2022/03/27 02:49:16;;;;;;;22.83;12.25;;;;;;;;;;5070148;28;20115;-66
2022/03/27 02:52:02;;;;;;;27.05;13.82;;;;;;;;;;5067541;28;20039;-66
2022/03/27 02:54:47;;;;;;;27.60;14.38;;;;;;;;;;5063252;28;20658;-65
2022/03/27 02:57:32;;;;;;;29.63;12.65;;;;;;;;;;5060571;28;20039;-65
2022/03/27 03:00:18;;;;;;;24.27;13.45;;;;;;;;;;5050265;28;20035;-67
2022/03/27 03:03:03;;;;;;;28.60;12.13;;;;;;;;;;5053021;28;20097;-67
2022/03/27 03:05:49;;;;;;;27.08;12.30;;;;;;;;;;5066611;28;20035;-68
2022/03/27 03:08:36;;;;;;;25.25;12.93;;;;;;;;;;5074218;28;20028;-67
2022/03/27 03:11:21;;;;;;;27.40;13.95;;;;;;;;;;5068215;28;20028;-68
2022/03/27 03:14:06;;;;;;;31.48;13.73;;;;;;;;;;5052842;28;20033;-69
2022/03/27 03:16:52;;;;;;;26.80;13.20;;;;;;;;;;5056154;28;20086;-68
2022/03/27 03:19:38;;;;;;;34.50;13.50;;;;;;;;;;5067868;28;20027;-68
2022/03/27 03:22:23;;;;;;;29.90;13.15;;;;;;;;;;5084930;28;20085;-66
2022/03/27 03:25:09;;;;;;;28.50;13.60;;;;;;;;;;5065444;28;20052;-67
2022/03/27 03:27:54;;;;;;;23.15;12.88;;;;;;;;;;5081140;28;20028;-69
2022/03/27 03:30:40;;;;;;;26.25;13.15;;;;;;;;;;5078774;28;20433;-68
2022/03/27 03:33:26;;;;;;;21.23;12.00;;;;;;;;;;5063387;28;20039;-69
2022/03/27 03:36:11;;;;;;;23.13;11.57;;;;;;;;;;5062196;28;20107;-69
2022/03/27 03:38:56;;;;;;;26.25;12.50;;;;;;;;;;5067290;28;20029;-69
2022/03/27 03:41:41;;;;;;;26.73;13.57;;;;;;;;;;5060629;28;20094;-72
2022/03/27 03:44:27;;;;;;;29.70;13.43;;;;;;;;;;5068450;28;20467;-68
2022/03/27 03:47:12;;;;;;;25.38;13.70;;;;;;;;;;5070156;28;20115;-69
2022/03/27 03:49:57;;;;;;;25.55;13.60;;;;;;;;;;5067243;28;20035;-67
2022/03/27 03:52:42;;;;;;;25.98;14.00;;;;;;;;;;5064919;28;20016;-66
2022/03/27 03:55:28;;;;;;;25.65;12.68;;;;;;;;;;5066438;28;20116;-68
2022/03/27 03:58:14;;;;;;;24.27;13.95;;;;;;;;;;5069167;28;20665;-66
2022/03/27 04:00:59;;;;;;;31.10;14.10;;;;;;;;;;5061898;28;20017;-72
2022/03/27 04:03:44;;;;;;;27.30;12.68;;;;;;;;;;5064462;28;20035;-68
2022/03/27 04:06:29;;;;;;;30.73;13.93;;;;;;;;;;5067087;28;20028;-68
2022/03/27 04:09:15;;;;;;;26.58;13.32;;;;;;;;;;5070098;28;20622;-68
2022/03/27 04:12:01;;;;;;;20.90;12.45;;;;;;;;;;5055396;28;20024;-69
2022/03/27 04:14:46;;;;;;;26.55;14.52;;;;;;;;;;5068727;28;20486;-68
2022/03/27 04:17:33;;;;;;;33.35;14.88;;;;;;;;;;5074968;28;20029;-68
2022/03/27 04:20:18;;;;;;;21.15;13.20;;;;;;;;;;5070714;28;20184;-68
2022/03/27 04:23:03;;;;;;;29.10;13.98;;;;;;;;;;5064778;28;20021;-63
2022/03/27 04:25:49;;;;;;;21.88;12.93;;;;;;;;;;5076171;28;20032;-66
2022/03/27 04:28:34;;;;;;;25.85;14.00;;;;;;;;;;5070629;28;20104;-65
2022/03/27 04:31:19;;;;;;;28.15;14.45;;;;;;;;;;5075083;28;20024;-67
2022/03/27 04:34:04;;;;;;;24.38;12.98;;;;;;;;;;5068021;28;20097;-65
2022/03/27 04:36:50;;;;;;;26.40;13.75;;;;;;;;;;5081616;28;20045;-70
2022/03/27 04:39:35;;;;;;;24.02;12.88;;;;;;;;;;5075854;28;20036;-64
2022/03/27 04:42:20;;;;;;;28.17;14.25;;;;;;;;;;5068725;28;20032;-64
2022/03/27 04:45:06;;;;;;;27.15;13.68;;;;;;;;;;5065972;28;20071;-64
2022/03/27 04:47:51;;;;;;;26.40;13.95;;;;;;;;;;5069949;28;20119;-65
2022/03/27 04:50:36;;;;;;;23.75;13.48;;;;;;;;;;5072082;28;20066;-66
2022/03/27 04:53:22;;;;;;;27.30;13.15;;;;;;;;;;5055415;28;20027;-63
2022/03/27 04:56:08;;;;;;;25.83;12.75;;;;;;;;;;5075370;28;20063;-67
2022/03/27 04:58:53;;;;;;;25.77;14.02;;;;;;;;;;5066897;28;20392;-63
2022/03/27 05:01:38;;;;;;;26.45;13.05;;;;;;;;;;5063484;28;20031;-62
2022/03/27 05:04:23;;;;;;;24.65;12.38;;;;;;;;;;5051035;28;20017;-63
2022/03/27 05:07:09;;;;;;;25.85;12.48;;;;;;;;;;5073451;28;20133;-64
2022/03/27 05:09:54;;;;;;;24.77;13.75;;;;;;;;;;5057815;28;20028;-64
2022/03/27 05:12:39;;;;;;;26.80;13.32;;;;;;;;;;5072066;28;20442;-63
2022/03/27 05:15:25;;;;;;;29.40;14.55;;;;;;;;;;5058463;28;20024;-67
2022/03/27 05:18:10;;;;;;;27.25;13.65;;;;;;;;;;5063199;28;20042;-68
2022/03/27 05:20:55;;;;;;;31.25;12.77;;;;;;;;;;5054375;28;20033;-69
2022/03/27 05:23:40;;;;;;;25.00;12.68;;;;;;;;;;5063542;28;20511;-69
2022/03/27 05:26:26;;;;;;;23.48;13.43;;;;;;;;;;5068972;28;20050;-69
2022/03/27 05:29:11;;;;;;;25.05;13.65;;;;;;;;;;5060471;28;20087;-69
2022/03/27 05:31:58;;;;;;;22.17;12.30;;;;;;;;;;5051596;28;20407;-70
2022/03/27 05:34:43;;;;;;;23.88;12.15;;;;;;;;;;5066700;28;20517;-64
2022/03/27 05:37:28;;;;;;;24.83;13.05;;;;;;;;;;5054199;28;20043;-66
2022/03/27 05:40:15;;;;;;;26.70;13.00;;;;;;;;;;5052106;28;20649;-66
2022/03/27 05:43:00;;;;;;;22.38;12.30;;;;;;;;;;5059103;28;20031;-66
2022/03/27 05:45:45;;;;;;;27.35;12.98;;;;;;;;;;5056296;28;20031;-66
2022/03/27 05:48:31;;;;;;;24.17;13.85;;;;;;;;;;5068256;28;20388;-65
2022/03/27 05:51:16;;;;;;;26.08;12.98;;;;;;;;;;5080282;28;20082;-64
2022/03/27 05:54:02;;;;;;;32.58;14.10;;;;;;;;;;5065241;28;20029;-64
2022/03/27 05:56:47;;;;;;;24.35;14.18;;;;;;;;;;5070193;28;20036;-66
2022/03/27 05:59:32;;;;;;;26.98;12.50;;;;;;;;;;5071864;28;20468;-66
2022/03/27 06:02:17;;;;;;;27.65;14.57;;;;;;;;;;5042192;28;20064;-65
2022/03/27 06:05:03;;;;;;;23.75;12.43;;;;;;;;;;5068739;28;20267;-67
2022/03/27 06:07:49;;;;;;;27.30;13.95;;;;;;;;;;5063561;28;20178;-66
2022/03/27 06:10:35;;;;;;;29.15;12.57;;;;;;;;;;5074543;28;20496;-68
2022/03/27 06:13:21;;;;;;;27.95;14.75;;;;;;;;;;5068075;28;20089;-72
2022/03/27 06:16:07;;;;;;;25.63;12.93;;;;;;;;;;5056796;28;20044;-72
2022/03/27 06:18:52;;;;;;;30.70;13.15;;;;;;;;;;5067818;28;20020;-73
2022/03/27 06:21:37;;;;;;;23.85;14.07;;;;;;;;;;5056644;28;20048;-73
2022/03/27 06:24:23;;;;;;;27.25;13.77;;;;;;;;;;5069268;28;20117;-73
2022/03/27 06:27:08;;;;;;;27.88;14.20;;;;;;;;;;5068672;28;20463;-62
2022/03/27 06:29:54;;;;;;;26.83;14.48;;;;;;;;;;5055649;28;20025;-64
2022/03/27 06:32:39;;;;;;;22.50;13.35;;;;;;;;;;5067418;28;20471;-66
2022/03/27 06:35:25;;;;;;;24.70;14.05;;;;;;;;;;5074815;28;20032;-66
2022/03/27 06:38:10;;;;;;;24.52;12.80;;;;;;;;;;5079451;28;20119;-66
2022/03/27 06:40:55;;;;;;;26.23;13.13;;;;;;;;;;5070926;28;20411;-68
2022/03/27 06:43:41;;;;;;;27.25;13.95;;;;;;;;;;5057941;28;20032;-67
2022/03/27 06:46:27;;;;;;;27.30;14.45;;;;;;;;;;5079033;28;20024;-69
2022/03/27 06:49:13;;;;;;;27.95;12.65;;;;;;;;;;5071992;28;20424;-65
2022/03/27 06:51:58;;;;;;;28.50;14.55;;;;;;;;;;5061372;28;20028;-64
2022/03/27 06:54:43;;;;;;;27.00;15.45;;;;;;;;;;5058636;28;20028;-64
2022/03/27 06:57:29;;;;;;;29.05;15.07;;;;;;;;;;5069828;28;20038;-66
2022/03/27 07:03:20;;;;;;;32.75;15.75;;;;;;;;;;5083699;28;20028;-63
2022/03/27 07:06:05;;;;;;;30.10;16.00;;;;;;;;;;5073561;28;20044;-66
2022/03/27 07:08:51;;;;;;;28.55;14.93;;;;;;;;;;5073209;28;20028;-68
2022/03/27 07:11:36;;;;;;;27.05;15.13;;;;;;;;;;5085069;28;20051;-69
2022/03/27 07:14:24;;;;;;;32.33;15.80;;;;;;;;;;5083138;28;20024;-71
2022/03/27 07:17:09;;;;;;;27.02;16.40;;;;;;;;;;5067081;28;20032;-67
2022/03/27 07:19:54;;;;;;;25.80;15.95;;;;;;;;;;5072566;28;20058;-69
2022/03/27 07:22:39;;;;;;;30.08;16.27;;;;;;;;;;5077790;28;20122;-68
2022/03/27 07:25:25;;;;;;;28.50;15.57;;;;;;;;;;5066974;28;20429;-65
2022/03/27 07:28:11;;;;;;;25.23;14.93;;;;;;;;;;5084817;28;20025;-66
2022/03/27 07:30:58;;;;;;;33.17;15.45;;;;;;;;;;5079195;28;20038;-66
2022/03/27 07:33:44;;;;;;;30.92;15.77;;;;;;;;;;5074441;28;20036;-68
2022/03/27 07:36:31;;;;;;;29.05;16.65;;;;;;;;;;5067397;28;20028;-67
2022/03/27 07:39:16;;;;;;;25.55;15.32;;;;;;;;;;5082225;28;20025;-67
2022/03/27 07:42:01;;;;;;;31.33;16.15;;;;;;;;;;5068165;28;20238;-66
2022/03/27 07:44:47;;;;;;;30.08;16.35;;;;;;;;;;5068427;28;20024;-66
2022/03/27 07:47:33;;;;;;;26.38;15.18;;;;;;;;;;5063261;28;20020;-63
2022/03/27 07:50:19;;;;;;;25.90;15.60;;;;;;;;;;5068067;28;20108;-66
2022/03/27 07:53:05;;;;;;;28.35;15.88;;;;;;;;;;5074048;28;20020;-63
2022/03/27 07:55:50;;;;;;;32.70;17.33;;;;;;;;;;5071823;28;20102;-65
2022/03/27 07:58:36;;;;;;;28.67;17.38;;;;;;;;;;5062371;28;20033;-71
2022/03/27 08:01:23;;;;;;;31.92;17.08;;;;;;;;;;5077033;28;20028;-67
2022/03/27 08:04:08;;;;;;;29.52;17.88;;;;;;;;;;5072731;28;20020;-65
2022/03/27 08:06:54;;;;;;;31.90;18.67;;;;;;;;;;5043397;28;20040;-66
2022/03/27 08:09:39;;;;;;;29.75;18.60;;;;;;;;;;5079472;28;20028;-66
2022/03/27 08:12:25;;;;;;;30.02;21.38;;;;;;;;;;5062080;28;20380;-71
2022/03/27 08:15:11;;;;;;;30.92;17.25;;;;;;;;;;5074158;28;20032;-68
2022/03/27 08:17:56;;;;;;;28.80;17.73;;;;;;;;;;5059424;28;20043;-68
2022/03/27 08:20:42;;;;;;;25.50;15.40;;;;;;;;;;5077403;28;20183;-68
2022/03/27 08:23:27;;;;;;;26.38;17.52;;;;;;;;;;5069253;28;20046;-68
2022/03/27 08:29:16;;;;;;;32.40;17.67;;;;;;;;;;5066413;28;20024;-69
2022/03/27 08:32:03;;;;;;;27.20;17.27;;;;;;;;;;5069357;28;20032;-68
2022/03/27 08:34:49;;;;;;;25.88;16.33;;;;;;;;;;5061174;28;20036;-69
2022/03/27 08:37:34;;;;;;;27.13;15.98;;;;;;;;;;5073525;28;20041;-64
2022/03/27 08:40:20;;;;;;;28.33;16.95;;;;;;;;;;5071132;28;20581;-68
2022/03/27 08:43:10;;;;;;;31.85;18.27;;;;;;;;;;5060280;28;20146;-67
2022/03/27 08:45:57;;;;;;;29.35;18.17;;;;;;;;;;5082236;28;20394;-70
2022/03/27 08:48:43;;;;;;;26.05;15.68;;;;;;;;;;5071395;28;20020;-67
2022/03/27 08:51:32;;;;;;;22.35;16.25;;;;;;;;;;5069797;28;20372;-70
2022/03/27 08:54:19;;;;;;;23.35;15.05;;;;;;;;;;5068847;28;20044;-67
2022/03/27 08:57:09;;;;;;;31.35;16.45;;;;;;;;;;5086658;28;20118;-67
2022/03/27 08:59:56;;;;;;;22.67;16.02;;;;;;;;;;5072213;28;20111;-67
2022/03/27 09:02:41;;;;;;;24.00;14.18;;;;;;;;;;5069069;28;20040;-70
2022/03/27 09:05:26;;;;;;;25.38;15.27;;;;;;;;;;5069794;28;20028;-69
2022/03/27 09:08:13;;;;;;;28.17;16.75;;;;;;;;;;5070364;28;20033;-68
2022/03/27 09:10:58;;;;;;;27.33;15.60;;;;;;;;;;5081830;28;20036;-67
2022/03/27 09:13:48;;;;;;;24.30;16.45;;;;;;;;;;5060599;28;20024;-68
2022/03/27 09:17:13;;;;;;;24.33;15.55;;;;;;;;;;5073625;28;20036;-67
2022/03/27 09:19:58;;;;;;;24.45;16.23;;;;;;;;;;5018942;28;20064;-67
2022/03/27 09:22:46;;;;;;;25.77;16.77;;;;;;;;;;5024606;28;20188;-68
2022/03/27 09:25:41;;;;;;;26.65;14.55;;;;;;;;;;5012199;28;20197;-68
2022/03/27 09:28:31;;;;;;;21.65;14.32;;;;;;;;;;5035608;28;20027;-68
2022/03/27 09:31:26;;;;;;;22.92;14.88;;;;;;;;;;5026158;28;20037;-70
2022/03/27 09:34:12;;;;;;;25.98;15.57;;;;;;;;;;5018337;28;20053;-76
2022/03/27 09:36:58;;;;;;;26.60;15.57;;;;;;;;;;5023852;28;20138;-75
2022/03/27 09:39:56;;;;;;;26.80;15.07;;;;;;;;;;5008284;28;20137;-73
2022/03/27 09:42:42;;;;;;;23.55;15.48;;;;;;;;;;5034234;28;20503;-73
2022/03/27 09:45:27;;;;;;;23.42;14.85;;;;;;;;;;5013260;28;20063;-74
2022/03/27 09:48:12;;;;;;;20.60;14.23;;;;;;;;;;4999908;28;20028;-75
2022/03/27 09:50:59;;;;;;;22.60;14.82;;;;;;;;;;5071406;28;20463;-67
2022/03/27 09:53:45;;;;;;;22.55;14.90;;;;;;;;;;5077886;28;20032;-68
2022/03/27 09:56:30;;;;;;;19.05;14.02;;;;;;;;;;5067799;28;20078;-68
2022/03/27 09:59:29;;;;;;;22.00;13.75;;;;;;;;;;5039288;28;20056;-70
2022/03/27 10:02:18;;;;;;;17.80;13.70;;;;;;;;;;5068508;28;20077;-68
2022/03/27 10:05:03;;;;;;;;;;;;;;;;;;5068895;28;20539;-67
2022/03/27 10:07:52;;;;;;;23.95;14.95;;;;;;;;;;5068360;28;20020;-67
2022/03/27 10:10:38;;;;;;;22.05;15.38;;;;;;;;;;5079338;28;20063;-69
2022/03/27 10:13:27;;;;;;;24.42;14.85;;;;;;;;;;5075271;28;20462;-70
2022/03/27 10:16:12;;;;;;;20.73;14.07;;;;;;;;;;5071593;28;20410;-69
2022/03/27 10:19:02;;;;;;;22.25;13.15;;;;;;;;;;5078841;28;20032;-69
2022/03/27 10:21:49;;;;;;;22.48;14.90;;;;;;;;;;5075532;28;20059;-68
2022/03/27 10:24:34;;;;;;;21.63;14.40;;;;;;;;;;5071947;28;20044;-70
2022/03/27 10:27:20;;;;;;;19.88;14.32;;;;;;;;;;5067832;28;20056;-66
2022/03/27 10:30:06;;;;;;;21.20;15.13;;;;;;;;;;5059728;28;20498;-72
2022/03/27 10:32:52;;;;;;;21.35;13.38;;;;;;;;;;5063274;28;20115;-72
2022/03/27 10:35:56;;;;;;;17.40;13.70;;;;;;;;;;5084512;28;20055;-71
2022/03/27 10:38:52;;;;;;;17.98;13.88;;;;;;;;;;5057612;28;20047;-72
2022/03/27 10:41:45;;;;;;;26.05;14.68;;;;;;;;;;5071741;28;20055;-73
2022/03/27 10:44:39;;;;;;;21.50;14.60;;;;;;;;;;5071204;28;20032;-73
2022/03/27 10:47:25;;;;;;;20.67;14.05;;;;;;;;;;5077190;28;20035;-67
2022/03/27 10:50:21;;;;;;;21.92;14.35;;;;;;;;;;5078873;28;20126;-70
2022/03/27 10:53:07;;;;;;;19.17;12.90;;;;;;;;;;5058297;28;20111;-69
2022/03/27 10:55:53;;;;;;;25.27;14.18;;;;;;;;;;5070116;28;20032;-71
2022/03/27 10:58:39;;;;;;;20.65;14.75;;;;;;;;;;5069384;28;20027;-69
2022/03/27 11:01:25;;;;;;;20.70;12.65;;;;;;;;;;5071782;28;20104;-68
2022/03/27 11:04:10;;;;;;;21.40;14.38;;;;;;;;;;5079373;28;20084;-68
2022/03/27 11:07:14;;;;;;;25.02;15.32;;;;;;;;;;5085173;28;20040;-70
2022/03/27 11:09:59;;;;;;;22.98;14.02;;;;;;;;;;5062402;28;20101;-72
2022/03/27 11:12:44;;;;;;;26.45;14.52;;;;;;;;;;5073083;28;20033;-70
2022/03/27 11:15:50;;;;;;;20.05;12.90;;;;;;;;;;5067270;28;20383;-70
2022/03/27 11:18:35;;;;;;;27.00;15.38;;;;;;;;;;5066739;28;20463;-70
2022/03/27 11:21:27;;;;;;;21.27;14.90;;;;;;;;;;5069845;28;20086;-70
2022/03/27 11:24:18;;;;;;;22.85;14.50;;;;;;;;;;5069797;28;20051;-66
2022/03/27 11:27:03;;;;;;;23.95;14.73;;;;;;;;;;5068757;28;20632;-68
2022/03/27 11:30:07;;;;;;;20.63;14.43;;;;;;;;;;5056514;28;20028;-67
2022/03/27 11:33:12;;;;;;;19.83;14.10;;;;;;;;;;5073765;28;20036;-68
2022/03/27 11:36:00;;;;;;;21.48;13.98;;;;;;;;;;5055836;28;20028;-69
2022/03/27 11:38:51;;;;;;;23.98;14.60;;;;;;;;;;5050631;28;20589;-69
2022/03/27 11:41:44;;;;;;;27.98;14.07;;;;;;;;;;5070694;28;20029;-66
2022/03/27 11:47:45;;;;;;;25.35;14.70;;;;;;;;;;5080659;28;20063;-71
2022/03/27 11:50:32;;;;;;;22.60;14.73;;;;;;;;;;5069346;28;20051;-71
2022/03/27 11:53:28;;;;;;;20.23;13.68;;;;;;;;;;5059422;28;20217;-71
2022/03/27 11:56:13;;;;;;;25.05;12.52;;;;;;;;;;5069776;28;20093;-68
2022/03/27 11:59:03;;;;;;;26.45;13.02;;;;;;;;;;5070020;28;20020;-69
2022/03/27 12:01:49;;;;;;;22.67;14.02;;;;;;;;;;5075009;28;20047;-71
2022/03/27 12:04:48;;;;;;;19.90;13.00;;;;;;;;;;5069284;28;20449;-69
2022/03/27 12:07:52;;;;;;;23.60;13.02;;;;;;;;;;5069460;28;20048;-72
2022/03/27 12:10:41;;;;;;;22.20;13.82;;;;;;;;;;5069529;28;20036;-69
2022/03/27 12:13:28;;;;;;;22.00;12.52;;;;;;;;;;5077374;28;20020;-69
2022/03/27 12:16:21;;;;;;;19.42;11.73;;;;;;;;;;5069717;28;20119;-73
2022/03/27 12:19:15;;;;;;;21.13;11.77;;;;;;;;;;5081276;28;20029;-67
2022/03/27 12:22:01;;;;;;;22.02;12.65;;;;;;;;;;5068783;28;20036;-66
2022/03/27 12:24:46;;;;;;;20.13;13.48;;;;;;;;;;5077535;28;20071;-68
2022/03/27 12:30:36;;;;;;;18.17;11.80;;;;;;;;;;5069448;28;20024;-67
2022/03/27 12:33:23;;;;;;;21.15;11.77;;;;;;;;;;5068769;28;20024;-67
2022/03/27 12:36:10;;;;;;;18.60;10.95;;;;;;;;;;5055162;28;20507;-69
2022/03/27 12:38:55;;;;;;;20.70;11.48;;;;;;;;;;5072493;28;20081;-70
2022/03/27 12:41:42;;;;;;;17.63;10.57;;;;;;;;;;5070685;28;20032;-73
2022/03/27 12:44:45;;;;;;;20.15;11.43;;;;;;;;;;5070580;28;20096;-71
2022/03/27 12:47:32;;;;;;;18.95;11.02;;;;;;;;;;5068555;28;20111;-71
2022/03/27 12:50:26;;;;;;;20.40;11.10;;;;;;;;;;5066651;28;20082;-73
2022/03/27 12:53:13;;;;;;;22.48;11.95;;;;;;;;;;5061816;28;20036;-71
2022/03/27 12:56:01;;;;;;;17.77;10.88;;;;;;;;;;5068512;28;20058;-70
2022/03/27 12:58:47;;;;;;;22.50;11.55;;;;;;;;;;5068219;28;20036;-67
2022/03/27 13:01:32;;;;;;;19.83;11.15;;;;;;;;;;5058995;28;20077;-66
2022/03/27 13:04:17;;;;;;;19.92;10.27;;;;;;;;;;5069033;28;20391;-68
2022/03/27 13:07:03;;;;;;;18.52;10.23;;;;;;;;;;5054506;28;20025;-67
2022/03/27 13:09:52;;;;;;;22.10;10.77;;;;;;;;;;5068500;28;20530;-65
2022/03/27 13:12:37;;;;;;;16.10;10.57;;;;;;;;;;5069769;28;20502;-69
2022/03/27 13:15:35;;;;;;;21.35;10.68;;;;;;;;;;5067881;28;20063;-66
2022/03/27 13:18:28;;;;;;;20.08;9.35;;;;;;;;;;5068596;28;20269;-68
2022/03/27 13:21:14;;;;;;;18.15;9.63;;;;;;;;;;5053814;28;20066;-65
2022/03/27 13:24:00;;;;;;;15.60;9.38;;;;;;;;;;5069621;28;20048;-66
2022/03/27 13:26:47;;;;;;;18.38;10.18;;;;;;;;;;5069320;28;20400;-67
2022/03/27 13:29:33;;;;;;;16.83;9.55;;;;;;;;;;5065570;28;20379;-66
2022/03/27 13:32:18;;;;;;;15.68;10.10;;;;;;;;;;5067056;28;20041;-68
2022/03/27 13:35:04;;;;;;;16.35;9.52;;;;;;;;;;5067856;28;20206;-67
2022/03/27 13:37:51;;;;;;;16.58;9.70;;;;;;;;;;5066936;28;20024;-67
2022/03/27 13:43:40;;;;;;;17.90;10.60;;;;;;;;;;5069405;28;20438;-66
2022/03/27 13:46:25;;;;;;;19.33;10.60;;;;;;;;;;5067103;28;20037;-66
2022/03/27 13:49:11;;;;;;;16.27;10.15;;;;;;;;;;5067925;28;20348;-70
2022/03/27 13:51:56;;;;;;;18.30;10.50;;;;;;;;;;5072949;28;20028;-73
2022/03/27 13:54:41;;;;;;;18.65;8.95;;;;;;;;;;5073298;28;20029;-70
2022/03/27 13:57:28;;;;;;;14.70;8.73;;;;;;;;;;5060866;28;21422;-71
2022/03/27 14:00:14;;;;;;;16.60;8.82;;;;;;;;;;5068493;28;20028;-72
2022/03/27 14:03:00;;;;;;;14.48;9.57;;;;;;;;;;5077894;28;20024;-72
2022/03/27 14:05:45;;;;;;;18.70;10.35;;;;;;;;;;5054437;28;20024;-73
2022/03/27 14:08:30;;;;;;;20.85;9.60;;;;;;;;;;5061670;28;20082;-67
2022/03/27 14:11:17;;;;;;;19.88;10.93;;;;;;;;;;5067523;28;20528;-66
2022/03/27 14:14:02;;;;;;;16.50;10.27;;;;;;;;;;5070797;28;20113;-66
2022/03/27 14:16:50;;;;;;;18.38;10.52;;;;;;;;;;5067932;28;20123;-66
2022/03/27 14:19:37;;;;;;;18.15;9.50;;;;;;;;;;5077689;28;20040;-66
2022/03/27 14:22:23;;;;;;;16.92;9.95;;;;;;;;;;5077743;28;20028;-68
2022/03/27 14:25:10;;;;;;;17.88;9.18;;;;;;;;;;5063299;28;20135;-68
2022/03/27 14:27:56;;;;;;;15.25;9.45;;;;;;;;;;5053379;28;20036;-68
2022/03/27 14:30:41;;;;;;;18.35;9.38;;;;;;;;;;5067475;28;20028;-67
2022/03/27 14:33:27;;;;;;;16.65;9.40;;;;;;;;;;5071725;28;20170;-66
2022/03/27 14:36:15;;;;;;;16.00;9.15;;;;;;;;;;5057612;28;20070;-65
2022/03/27 14:39:00;;;;;;;18.08;9.70;;;;;;;;;;5058224;28;20031;-68
2022/03/27 14:41:46;;;;;;;14.55;9.25;;;;;;;;;;5067734;28;20027;-67
2022/03/27 14:44:32;;;;;;;18.55;9.68;;;;;;;;;;5076588;28;20107;-67
2022/03/27 14:47:17;;;;;;;14.57;8.15;;;;;;;;;;5053987;28;20041;-70
2022/03/27 14:50:03;;;;;;;17.65;9.77;;;;;;;;;;5066076;28;20028;-67
2022/03/27 14:52:49;;;;;;;19.02;9.95;;;;;;;;;;5050937;28;20025;-66
2022/03/27 14:58:38;;;;;;;16.27;9.35;;;;;;;;;;5080274;28;20017;-67
2022/03/27 15:01:23;;;;;;;16.20;8.68;;;;;;;;;;5057621;28;20398;-67
2022/03/27 15:04:09;;;;;;;16.27;8.85;;;;;;;;;;5073613;28;20159;-74
2022/03/27 15:06:54;;;;;;;20.92;10.18;;;;;;;;;;5055490;28;20135;-66
2022/03/27 15:09:39;;;;;;;15.90;9.52;;;;;;;;;;5072739;28;20494;-68
2022/03/27 15:12:25;;;;;;;16.25;9.25;;;;;;;;;;5062895;28;20031;-66
2022/03/27 15:15:10;;;;;;;23.05;9.52;;;;;;;;;;5058359;28;20041;-66
2022/03/27 15:17:56;;;;;;;19.17;9.02;;;;;;;;;;5070256;28;20024;-67
2022/03/27 15:20:41;;;;;;;23.33;9.23;;;;;;;;;;5070887;28;20398;-68
2022/03/27 15:23:26;;;;;;;18.10;8.95;;;;;;;;;;5070403;28;20119;-66
2022/03/27 15:26:12;;;;;;;13.55;8.35;;;;;;;;;;5084102;28;20508;-68
2022/03/27 15:28:57;;;;;;;20.75;10.00;;;;;;;;;;5070585;28;20035;-68
2022/03/27 15:31:43;;;;;;;21.17;10.13;;;;;;;;;;5094572;28;20186;-66
2022/03/27 15:34:29;;;;;;;16.70;8.52;;;;;;;;;;5050999;28;20025;-67
2022/03/27 15:37:14;;;;;;;21.38;8.48;;;;;;;;;;5066302;28;20521;-65
2022/03/27 15:39:59;;;;;;;19.52;10.20;;;;;;;;;;5063591;28;20130;-66
2022/03/27 15:42:45;;;;;;;19.13;10.05;;;;;;;;;;5069152;28;20067;-69
2022/03/27 15:45:34;;;;;;;15.55;8.82;;;;;;;;;;5077868;28;20070;-69
2022/03/27 15:48:19;;;;;;;14.75;8.35;;;;;;;;;;5056876;28;20020;-68
2022/03/27 15:51:05;;;;;;;20.58;10.35;;;;;;;;;;5070174;28;20020;-68
2022/03/27 15:53:50;;;;;;;18.27;8.98;;;;;;;;;;5069755;28;20115;-68
2022/03/27 15:56:35;;;;;;;17.83;9.35;;;;;;;;;;5068754;28;20174;-72
2022/03/27 15:59:21;;;;;;;15.80;8.63;;;;;;;;;;5062326;28;20111;-75
2022/03/27 16:02:07;;;;;;;18.05;9.45;;;;;;;;;;5082444;28;20013;-65
2022/03/27 16:04:52;;;;;;;15.93;8.55;;;;;;;;;;5073801;28;20028;-67
2022/03/27 16:07:37;;;;;;;16.85;9.77;;;;;;;;;;5054323;28;20073;-66
2022/03/27 16:10:23;;;;;;;15.90;9.13;;;;;;;;;;5073265;28;20348;-57
2022/03/27 16:13:08;;;;;;;18.40;8.85;;;;;;;;;;5072546;28;20032;-56
2022/03/27 16:15:53;;;;;;;17.40;8.23;;;;;;;;;;5069259;28;20487;-64
2022/03/27 16:18:39;;;;;;;16.35;8.88;;;;;;;;;;5072630;28;20039;-71
2022/03/27 16:21:25;;;;;;;16.45;8.88;;;;;;;;;;5064226;28;20108;-68
2022/03/27 16:24:10;;;;;;;21.38;9.27;;;;;;;;;;5072352;28;20052;-69
2022/03/27 16:26:56;;;;;;;16.35;8.27;;;;;;;;;;5062596;28;20032;-70
2022/03/27 16:29:41;;;;;;;19.42;8.43;;;;;;;;;;5073044;28;20027;-68
2022/03/27 16:32:26;;;;;;;19.92;9.20;;;;;;;;;;5070786;28;20025;-68
2022/03/27 16:35:13;;;;;;;21.92;9.48;;;;;;;;;;5085420;28;20089;-64